createdAt,value
2017-04-07T08:23:07.996Z,1027.33
2017-04-07T08:28:07.963Z,1026.64
2017-04-07T08:33:07.935Z,1027.34
2017-04-07T08:38:07.911Z,1026.9
2017-04-07T08:43:07.882Z,1026.85
2017-04-07T08:48:07.855Z,1027.35
2017-04-07T08:53:07.829Z,1027.05
2017-04-07T08:58:07.797Z,1026.95
2017-04-07T09:03:07.759Z,1026.92
2017-04-07T09:08:07.725Z,1026.76
2017-04-07T09:13:07.731Z,1026.92
2017-04-07T09:18:07.654Z,1027.08
2017-04-07T09:23:07.618Z,1027.36
2017-04-07T09:28:07.692Z,1027.37
2017-04-07T09:33:07.558Z,1027.64
2017-04-07T09:38:07.523Z,1026.89
2017-04-07T09:43:07.484Z,1026.79
2017-04-07T09:48:07.452Z,1027.83
2017-04-07T09:53:07.410Z,1027.13
2017-04-07T09:58:07.376Z,1027.64
2017-04-07T10:03:07.350Z,1026.93
2017-04-07T10:08:07.303Z,1028.45
2017-04-07T10:13:07.268Z,1026.95
2017-04-07T10:18:07.222Z,1026.96
2017-04-07T10:23:07.240Z,1026.96
2017-04-07T10:28:07.207Z,1026.96
2017-04-07T10:33:07.464Z,1026.97
2017-04-07T10:38:07.200Z,1027.52
2017-04-07T10:43:07.277Z,1027
2017-04-07T10:48:07.196Z,1027.58
2017-04-07T10:53:07.233Z,1026.97
2017-04-07T10:58:07.204Z,1027.11
2017-04-07T11:03:07.224Z,1027.07
2017-04-07T11:08:07.209Z,1027.17
2017-04-07T11:13:07.226Z,1026.9
2017-04-07T11:18:07.213Z,1026.98
2017-04-07T11:23:07.233Z,1026.95
2017-04-07T11:28:07.226Z,1026.8
2017-04-07T11:33:07.313Z,1026.76
2017-04-07T11:38:07.241Z,1026.61
2017-04-07T11:43:07.297Z,1026.69
2017-04-07T11:48:07.250Z,1026.68
2017-04-07T11:53:07.268Z,1026.71
2017-04-07T11:58:07.259Z,1026.66
2017-04-07T12:03:07.281Z,1026.64
2017-04-07T12:08:07.268Z,1026.66
2017-04-07T12:13:07.347Z,1026.66
2017-04-07T12:18:07.276Z,1026.62
2017-04-07T12:23:07.335Z,1026.67
2017-04-07T12:28:07.291Z,1026.6
2017-04-07T12:33:07.378Z,1026.57
2017-04-07T12:38:07.292Z,1026.63
2017-04-07T12:43:07.317Z,1026.59
2017-04-07T12:48:07.298Z,1026.68
2017-04-07T12:53:07.310Z,1026.6
2017-04-07T12:58:07.300Z,1026.63
2017-04-07T13:03:07.269Z,1026.58
2017-04-07T13:08:07.239Z,1026.66
2017-04-07T13:13:07.193Z,1026.59
2017-04-07T13:18:07.157Z,1026.53
2017-04-07T13:23:07.119Z,1026.54
2017-04-07T13:28:07.085Z,1026.5
2017-04-07T13:33:07.042Z,1026.5
2017-04-07T13:38:07.005Z,1026.54
2017-04-07T13:43:06.965Z,1026.59
2017-04-07T13:48:06.929Z,1026.52
2017-04-07T13:53:06.889Z,1026.53
2017-04-07T13:58:06.847Z,1026.54
2017-04-07T14:03:06.809Z,1026.54
2017-04-07T14:08:06.778Z,1026.45
2017-04-07T14:13:06.727Z,1026.47
2017-04-07T14:18:06.693Z,1026.42
2017-04-07T14:23:06.651Z,1026.31
2017-04-07T14:28:06.618Z,1026.3
2017-04-07T14:33:06.576Z,1026.33
2017-04-07T14:38:06.533Z,1026.17
2017-04-07T14:43:06.490Z,1026.21
2017-04-07T14:48:06.451Z,1026.16
2017-04-07T14:53:06.411Z,1026.17
2017-04-07T14:58:06.369Z,1026.18
2017-04-07T15:03:06.328Z,1026.18
2017-04-07T15:08:06.285Z,1026.25
2017-04-07T15:13:06.248Z,1026.17
2017-04-07T15:18:06.209Z,1026.09
2017-04-07T15:23:06.194Z,1026.11
2017-04-07T15:28:06.184Z,1026.08
2017-04-07T15:33:06.182Z,1026.02
2017-04-07T15:38:06.208Z,1026.08
2017-04-07T15:43:06.182Z,1026.16
2017-04-07T15:48:06.173Z,1026.14
2017-04-07T15:53:06.166Z,1026.12
2017-04-07T15:58:06.196Z,1026.11
2017-04-07T16:03:06.152Z,1026.18
2017-04-07T16:08:06.177Z,1026.17
2017-04-07T16:13:06.144Z,1026.22
2017-04-07T16:18:06.211Z,1026.21
2017-04-07T16:23:06.138Z,1026.21
2017-04-07T16:28:06.140Z,1026.2
2017-04-07T16:33:06.115Z,1026.21
2017-04-07T16:38:06.201Z,1026.23
2017-04-07T16:43:06.090Z,1026.2
2017-04-07T16:48:06.073Z,1026.2
2017-04-07T16:53:06.054Z,1026.23
2017-04-07T16:58:06.046Z,1026.3
2017-04-07T17:03:06.018Z,1026.35
2017-04-07T17:08:05.982Z,1026.32
2017-04-07T17:13:05.961Z,1026.38
2017-04-07T17:18:05.942Z,1026.39
2017-04-07T17:23:05.896Z,1026.41
2017-04-07T17:28:05.840Z,1026.43
2017-04-07T17:33:05.770Z,1026.47
2017-04-07T17:38:05.699Z,1026.48
2017-04-07T17:43:05.636Z,1026.49
2017-04-07T17:48:05.567Z,1026.49
2017-04-07T17:53:05.506Z,1026.55
2017-04-07T17:58:05.436Z,1026.59
2017-04-07T18:03:05.364Z,1026.59
2017-04-07T18:08:05.331Z,1026.67
2017-04-07T18:13:05.302Z,1026.69
2017-04-07T18:18:05.269Z,1026.77
2017-04-07T18:23:05.243Z,1026.91
2017-04-07T18:28:05.210Z,1026.91
2017-04-07T18:33:05.192Z,1026.96
2017-04-07T18:38:05.153Z,1026.94
2017-04-07T18:43:05.128Z,1026.95
2017-04-07T18:48:05.085Z,1027
2017-04-07T18:53:05.042Z,1027.05
2017-04-07T18:58:05.004Z,1027.09
2017-04-07T19:03:04.981Z,1027.18
2017-04-07T19:08:04.938Z,1027.28
2017-04-07T19:13:04.907Z,1027.29
2017-04-07T19:18:04.871Z,1027.32
2017-04-07T19:23:04.829Z,1027.36
2017-04-07T19:28:04.805Z,1027.41
2017-04-07T19:33:04.760Z,1027.39
2017-04-07T19:38:04.722Z,1027.38
2017-04-07T19:43:04.711Z,1027.45
2017-04-07T19:48:04.645Z,1027.49
2017-04-07T19:53:04.626Z,1027.5
2017-04-07T19:58:04.573Z,1027.53
2017-04-07T20:03:04.534Z,1027.54
2017-04-07T20:08:04.502Z,1027.57
2017-04-07T20:13:04.458Z,1027.53
2017-04-07T20:18:04.576Z,1027.55
2017-04-07T20:23:04.384Z,1027.57
2017-04-07T20:28:04.361Z,1027.62
2017-04-07T20:33:04.315Z,1027.61
2017-04-07T20:38:04.278Z,1027.63
2017-04-07T20:43:04.235Z,1027.63
2017-04-07T20:48:04.203Z,1027.6
2017-04-07T20:53:04.170Z,1027.64
2017-04-07T20:58:04.144Z,1027.63
2017-04-07T21:03:04.096Z,1027.62
2017-04-07T21:08:04.065Z,1027.55
2017-04-07T21:13:04.065Z,1027.55
2017-04-07T21:18:03.986Z,1027.53
2017-04-07T21:23:03.985Z,1027.42
2017-04-07T21:28:03.916Z,1027.5
2017-04-07T21:33:03.873Z,1027.53
2017-04-07T21:38:03.842Z,1027.51
2017-04-07T21:43:03.825Z,1027.57
2017-04-07T21:48:03.761Z,1027.51
